Time;durP1;ratioP1;P1;durP2;ratioP2;P2;SDS_P1;SDS_P2;PMS_P1;PMS_P2;Temp;Humidity;BMP_temperature;BMP_pressure;BME280_temperature;BME280_humidity;BME280_pressure;Samples;Min_cycle;Max_cycle;Signal;HPM_P1;HPM_P2
2022/11/14 00:15:00;;;;;;;22.20;11.00;;;;;;;12.45;100.00;101663.75;662416;1307;138807;-79
2022/11/14 00:30:22;;;;;;;22.10;10.60;;;;;;;12.31;100.00;101658.77;662518;1307;138702;-79
2022/11/14 00:45:45;;;;;;;21.10;10.80;;;;;;;12.24;100.00;101649.98;662258;1309;138780;-78
2022/11/14 01:01:07;;;;;;;20.30;11.30;;;;;;;12.20;100.00;101638.55;662034;1307;138954;-79
2022/11/14 01:16:28;;;;;;;18.80;10.70;;;;;;;12.13;100.00;101624.70;662409;1307;138696;-78
2022/11/14 01:31:50;;;;;;;24.70;12.50;;;;;;;12.11;100.00;101606.05;661923;1309;138698;-78
2022/11/14 01:47:17;;;;;;;17.00;10.20;;;;;;;11.98;100.00;101589.29;661923;1309;138906;-78
2022/11/14 02:02:40;;;;;;;21.60;10.90;;;;;;;12.03;100.00;101576.48;661931;1296;138919;-78
2022/11/14 02:18:03;;;;;;;20.40;11.80;;;;;;;12.01;99.99;101564.02;661998;1309;138827;-78
2022/11/14 02:33:25;;;;;;;24.20;12.90;;;;;;;11.93;100.00;101553.38;662523;1302;138608;-78
2022/11/14 02:48:47;;;;;;;25.40;13.60;;;;;;;11.83;100.00;101542.84;662192;1310;138993;-78
2022/11/14 03:04:09;;;;;;;32.20;15.70;;;;;;;11.82;100.00;101532.25;662275;1309;138977;-78
2022/11/14 03:19:31;;;;;;;27.60;14.50;;;;;;;11.79;100.00;101519.35;662377;1309;138832;-78
2022/11/14 03:34:53;;;;;;;29.80;15.50;;;;;;;11.67;100.00;101509.81;662589;1297;139325;-79
2022/11/14 03:50:15;;;;;;;33.10;15.10;;;;;;;11.65;100.00;101501.73;661766;1303;138922;-78
2022/11/14 04:05:37;;;;;;;35.30;18.30;;;;;;;11.54;100.00;101494.34;662229;1309;138929;-79
2022/11/14 04:20:59;;;;;;;26.70;14.40;;;;;;;11.40;100.00;101480.29;662342;1302;138951;-78
2022/11/14 04:36:21;;;;;;;27.10;13.90;;;;;;;11.30;100.00;101472.10;662698;1307;138947;-78
2022/11/14 04:51:43;;;;;;;115.60;38.80;;;;;;;11.31;100.00;101451.33;662381;1309;139230;-78
2022/11/14 05:07:05;;;;;;;63.40;23.10;;;;;;;11.22;100.00;101457.39;662209;1307;138947;-79
2022/11/14 05:22:27;;;;;;;63.30;21.10;;;;;;;11.19;100.00;101443.29;662388;1309;138920;-79
2022/11/14 05:37:50;;;;;;;31.40;10.60;;;;;;;11.15;100.00;101436.89;662534;1309;138863;-78
2022/11/14 05:53:17;;;;;;;24.10;10.70;;;;;;;10.99;100.00;101433.80;662270;1310;139051;-79
2022/11/14 06:08:40;;;;;;;31.70;12.50;;;;;;;11.03;100.00;101437.41;662091;1307;139059;-78
2022/11/14 06:24:02;;;;;;;17.00;8.50;;;;;;;11.03;100.00;101445.27;662386;1309;139052;-78
2022/11/14 06:39:25;;;;;;;15.80;8.10;;;;;;;10.95;100.00;101454.45;662430;1310;138976;-79
2022/11/14 06:54:48;;;;;;;15.70;7.30;;;;;;;10.87;100.00;101450.44;662107;1309;138849;-79
2022/11/14 07:10:10;;;;;;;13.80;8.30;;;;;;;10.90;100.00;101450.03;662165;1309;138808;-80
2022/11/14 07:25:33;;;;;;;18.60;11.90;;;;;;;10.99;100.00;101455.90;661716;1309;138662;-80
2022/11/14 07:40:56;;;;;;;26.30;16.10;;;;;;;11.00;100.00;101448.98;661839;1309;139109;-78
2022/11/14 07:56:21;;;;;;;35.20;19.80;;;;;;;10.99;100.00;101438.19;661903;1310;139011;-78
2022/11/14 08:11:46;;;;;;;28.70;16.30;;;;;;;11.08;100.00;101427.25;661897;1302;138967;-79
2022/11/14 08:27:08;;;;;;;33.50;19.70;;;;;;;11.09;100.00;101419.79;662145;1309;139049;-79
2022/11/14 08:42:30;;;;;;;29.80;14.70;;;;;;;11.13;100.00;101409.73;662040;1307;138829;-79
2022/11/14 08:57:53;;;;;;;28.60;15.50;;;;;;;11.11;100.00;101396.89;662396;1302;139438;-79
2022/11/14 09:13:17;;;;;;;33.70;21.50;;;;;;;11.12;100.00;101395.60;662548;1308;139571;-79
2022/11/14 09:28:40;;;;;;;27.20;16.80;;;;;;;11.19;100.00;101384.41;662281;1309;138896;-80
2022/11/14 09:44:08;;;;;;;27.20;14.60;;;;;;;11.36;99.70;101372.10;661873;1310;138736;-81
2022/11/14 09:59:30;;;;;;;26.60;15.60;;;;;;;11.42;99.49;101354.21;662272;1310;138808;-81
2022/11/14 10:15:18;;;;;;;21.20;12.00;;;;;;;11.33;98.42;101348.34;662114;1310;138696;-80
2022/11/14 10:31:19;;;;;;;29.80;16.20;;;;;;;11.22;98.48;101336.94;662387;1300;138812;-81
2022/11/14 10:46:46;;;;;;;28.80;16.50;;;;;;;11.32;99.09;101324.66;661953;1310;139424;-78
2022/11/14 11:02:08;;;;;;;32.00;20.10;;;;;;;11.31;98.64;101299.64;661498;1308;141939;-78
2022/11/14 11:17:31;;;;;;;40.50;23.00;;;;;;;11.52;98.45;101276.37;661634;1303;138747;-79
2022/11/14 11:33:28;;;;;;;40.00;24.00;;;;;;;11.52;97.57;101265.12;661785;1310;138827;-78
2022/11/14 11:49:00;;;;;;;34.20;19.40;;;;;;;11.32;97.69;101246.16;661598;1309;200693;-79
2022/11/14 12:04:23;;;;;;;30.60;19.80;;;;;;;11.16;98.98;101235.14;661871;1298;138834;-78
2022/11/14 12:19:49;;;;;;;34.20;20.10;;;;;;;11.40;98.72;101221.05;661756;1310;138797;-79
2022/11/14 12:35:22;;;;;;;31.50;19.70;;;;;;;11.55;98.70;101223.22;661930;1310;140032;-76
2022/11/14 12:50:44;;;;;;;33.70;20.60;;;;;;;11.56;98.58;101209.68;662021;1306;138593;-76
2022/11/14 13:06:21;;;;;;;39.10;22.50;;;;;;;11.56;98.46;101195.52;662030;1309;139658;-78
2022/11/14 13:22:12;;;;;;;52.60;26.80;;;;;;;11.63;98.45;101181.25;662054;1310;138741;-77
2022/11/14 13:37:44;;;;;;;57.90;30.30;;;;;;;11.52;99.47;101179.67;661966;1310;139239;-76
2022/11/14 13:53:16;;;;;;;62.90;33.20;;;;;;;11.42;99.92;101166.61;662023;1309;138689;-81
2022/11/14 14:09:03;;;;;;;53.20;31.60;;;;;;;11.20;100.00;101147.48;661970;1309;138738;-81
2022/11/14 14:24:37;;;;;;;59.10;38.20;;;;;;;10.99;100.00;101137.85;661893;1302;139407;-79
2022/11/14 14:40:03;;;;;;;58.80;30.80;;;;;;;10.91;100.00;101115.55;661935;1309;139961;-78
2022/11/14 14:55:34;;;;;;;63.10;39.70;;;;;;;10.70;100.00;101106.91;661759;1310;138987;-79
2022/11/14 15:10:59;;;;;;;184.70;99.30;;;;;;;10.53;100.00;101086.86;662067;1310;139747;-79
2022/11/14 15:26:21;;;;;;;179.30;69.60;;;;;;;10.54;100.00;101075.10;661645;1308;139105;-79
2022/11/14 15:41:44;;;;;;;54.60;31.60;;;;;;;10.44;100.00;101071.45;661927;1310;139027;-80
2022/11/14 15:57:15;;;;;;;203.80;99.60;;;;;;;10.40;100.00;101062.17;661940;1309;139247;-80
2022/11/14 16:12:38;;;;;;;53.10;29.20;;;;;;;10.33;100.00;101055.83;661707;1310;139780;-79
2022/11/14 16:27:59;;;;;;;64.30;33.80;;;;;;;10.12;100.00;101051.20;661641;1309;138969;-79
2022/11/14 16:43:21;;;;;;;113.20;70.70;;;;;;;10.10;100.00;101046.09;661737;1309;138925;-80
2022/11/14 16:58:43;;;;;;;105.80;61.80;;;;;;;10.07;100.00;101031.37;661904;1310;139100;-80
2022/11/14 17:14:06;;;;;;;100.90;61.30;;;;;;;10.05;100.00;101014.68;661309;1303;139716;-79
2022/11/14 17:29:28;;;;;;;68.80;36.70;;;;;;;9.95;100.00;101009.15;661080;1307;139310;-80
2022/11/14 17:44:50;;;;;;;81.30;49.70;;;;;;;9.82;100.00;101001.17;661287;1310;139016;-80
2022/11/14 18:00:13;;;;;;;75.30;40.20;;;;;;;9.76;100.00;100993.80;661338;1310;139007;-80
2022/11/14 18:15:38;;;;;;;62.30;31.90;;;;;;;9.81;100.00;100977.86;661255;1310;138840;-80
2022/11/14 18:31:02;;;;;;;57.60;32.50;;;;;;;9.80;100.00;100969.93;661390;1310;139110;-80
2022/11/14 18:46:25;;;;;;;51.80;27.40;;;;;;;9.63;100.00;100965.55;660726;1305;139392;-80
2022/11/14 19:01:49;;;;;;;62.80;32.50;;;;;;;9.62;100.00;100953.23;661055;1310;138785;-77
2022/11/14 19:17:13;;;;;;;123.40;62.80;;;;;;;9.45;100.00;100944.52;661056;1299;138792;-80
2022/11/14 19:32:38;;;;;;;95.80;46.30;;;;;;;9.29;100.00;100933.08;660767;1312;139764;-81
2022/11/14 19:48:01;;;;;;;89.20;45.20;;;;;;;9.12;100.00;100932.56;661232;1305;138678;-81
2022/11/14 20:03:24;;;;;;;81.90;35.10;;;;;;;8.99;100.00;100923.35;661266;1310;140739;-80
2022/11/14 20:18:48;;;;;;;85.80;40.60;;;;;;;8.89;100.00;100904.20;661339;1310;138684;-82
2022/11/14 20:34:18;;;;;;;82.10;39.60;;;;;;;8.88;100.00;100900.95;661431;1310;138899;-80
2022/11/14 20:49:41;;;;;;;85.50;40.90;;;;;;;8.77;100.00;100884.92;661476;1310;138807;-80
2022/11/14 21:05:03;;;;;;;80.80;36.80;;;;;;;8.65;100.00;100858.73;661427;1308;138711;-80
2022/11/14 21:20:25;;;;;;;71.20;33.30;;;;;;;8.69;100.00;100845.94;661376;1305;138805;-80
2022/11/14 21:35:48;;;;;;;59.00;27.90;;;;;;;8.71;100.00;100833.61;661558;1310;139071;-80
2022/11/14 21:51:14;;;;;;;50.50;26.20;;;;;;;8.60;100.00;100820.38;661498;1310;138842;-79
2022/11/14 22:06:37;;;;;;;51.20;25.60;;;;;;;8.43;100.00;100808.69;661323;1310;138794;-79
2022/11/14 22:21:59;;;;;;;53.80;25.50;;;;;;;8.43;100.00;100798.94;661412;1310;138967;-79
2022/11/14 22:37:21;;;;;;;51.10;26.10;;;;;;;8.44;100.00;100786.80;661500;1310;138692;-80
2022/11/14 22:52:43;;;;;;;49.00;22.90;;;;;;;8.51;100.00;100771.50;661604;1305;138669;-80
2022/11/14 23:08:05;;;;;;;63.50;27.90;;;;;;;8.59;100.00;100753.55;661557;1296;139382;-79
2022/11/14 23:23:27;;;;;;;54.00;26.10;;;;;;;8.37;100.00;100742.71;661726;1310;138664;-78
2022/11/14 23:38:53;;;;;;;45.60;23.00;;;;;;;8.38;100.00;100725.20;661448;1310;139340;-79
2022/11/14 23:54:14;;;;;;;55.00;26.40;;;;;;;8.24;100.00;100718.87;661368;1307;249027;-79
